Latest Weather Observations for Gatton

IDQ60901

Issued at 6:21 pm EST Thursday 18 July 2024 (issued every 10 minutes, with the page automatically refreshed every 10 minutes)

About weather observations | Map of Brisbane area stations | Latest observations for Brisbane area | Other Formats
Station Details ID: 040082 Name: UNIVERSITY OF QUEENSLAND GATTON Lat: -27.54 Lon: 152.34 Height: 89.0 m
Data from the previous 72 hours. | See also: Recent months at Gatton
Date/Time
EST
Temp
°C
App
Temp
°C
Dew
Point
°C
Rel
Hum
%
Delta-T
°C
Wind Press
QNH
hPa
Press
MSL
hPa
Rain since
9am
mm
Dir  Spd
km/h
Gust
km/h
Spd
kts
Gust
kts
18/06:00pm 11.4 7.7 6.1 70 2.5 WSW 15 19 8 10 - - 0.0
18/05:30pm 12.1 7.9 5.9 66 2.9 WSW 17 24 9 13 - - 0.0
18/05:00pm 13.2 8.6 6.3 63 3.3 WSW 20 30 11 16 - - 0.0
18/04:30pm 14.5 8.6 5.6 55 4.2 WSW 26 37 14 20 - - 0.0
18/04:00pm 14.6 9.8 5.4 54 4.4 WSW 20 28 11 15 - - 0.0
18/03:30pm 14.6 9.4 5.4 54 4.4 WSW 22 30 12 16 - - 0.0
18/03:00pm 15.3 9.3 5.5 52 4.7 WSW 26 35 14 19 - - 0.0
18/02:30pm 15.5 10.3 5.7 52 4.7 WSW 22 37 12 20 - - 0.0
18/02:00pm 15.6 10.4 5.5 51 4.8 SW 22 33 12 18 - - 0.0
18/01:30pm 15.6 10.2 6.3 54 4.5 WSW 24 35 13 19 - - 0.0
18/01:00pm 15.7 8.7 6.2 53 4.6 WSW 32 43 17 23 - - 0.0
18/12:30pm 14.8 8.0 5.1 52 4.6 SW 30 43 16 23 - - 0.0
18/12:00pm 14.4 8.7 6.7 60 3.7 WSW 26 39 14 21 - - 0.0
18/11:30am 15.3 8.4 6.3 55 4.4 WSW 32 44 17 24 - - 0.0
18/11:00am 14.7 9.1 7.0 60 3.8 WSW 26 39 14 21 - - 0.0
18/10:30am 13.9 6.4 6.5 61 3.6 WSW 35 46 19 25 - - 0.0
18/10:00am 13.5 7.1 7.1 65 3.1 WSW 30 39 16 21 - - 0.0
18/09:30am 12.7 6.2 6.7 67 2.9 W 30 39 16 21 - - 0.0
18/09:00am 12.6 6.6 7.1 69 2.7 W 28 43 15 23 - - 0.0
18/08:30am 11.8 6.1 6.7 71 2.4 W 26 39 14 21 - - 0.0
18/08:00am 11.5 6.2 6.8 73 2.2 W 24 35 13 19 - - 0.0
18/07:30am 10.8 6.2 6.7 76 1.9 W 20 30 11 16 - - 0.0
18/07:00am 10.0 6.3 6.5 79 1.6 W 15 24 8 13 - - 0.0
18/06:30am 9.3 5.6 6.2 81 1.4 W 15 24 8 13 - - 0.0
18/06:00am 9.4 4.9 6.3 81 1.4 W 19 24 10 13 - - 0.0
18/05:30am 9.5 6.5 6.2 80 1.5 W 11 17 6 9 - - 0.0
18/05:00am 9.6 6.6 6.0 78 1.7 W 11 17 6 9 - - 0.0
18/04:30am 9.5 5.7 5.9 78 1.7 W 15 19 8 10 - - 0.0
18/04:00am 10.1 6.0 6.1 76 1.9 W 17 24 9 13 - - 0.0
18/03:30am 9.8 5.2 5.8 76 1.8 WSW 19 26 10 14 - - 0.0
18/03:00am 10.1 7.8 5.7 74 2.0 SW 7 15 4 8 - - 0.0
18/02:30am 10.0 6.6 5.8 75 1.9 WSW 13 24 7 13 - - 0.0
18/02:00am 9.8 6.7 5.6 75 1.9 W 11 20 6 11 - - 0.0
18/01:30am 9.5 6.8 5.5 76 1.8 W 9 13 5 7 - - 0.0
18/01:00am 9.3 7.4 5.1 75 1.9 SW 4 11 2 6 - - 0.0
18/12:30am 9.4 5.8 5.0 74 2.0 W 13 20 7 11 - - 0.0
18/12:00am 10.1 4.4 5.1 71 2.3 W 24 39 13 21 - - 0.0
 
Date/Time
EST
Temp
°C
App
Temp
°C
Dew
Point
°C
Rel
Hum
%
Delta-T
°C
Wind Press
QNH
hPa
Press
MSL
hPa
Rain since
9am
mm
Dir  Spd
km/h
Gust
km/h
Spd
kts
Gust
kts
17/11:30pm 10.0 3.9 5.0 71 2.3 W 26 39 14 21 - - 0.0
17/11:00pm 9.9 3.5 5.3 73 2.1 W 28 39 15 21 - - 0.0
17/10:30pm 10.2 4.3 5.6 73 2.1 W 26 35 14 19 - - 0.0
17/10:00pm 10.2 5.4 5.6 73 2.1 W 20 28 11 15 - - 0.0
17/09:30pm 10.4 6.2 5.6 72 2.2 WSW 17 32 9 17 - - 0.0
17/09:00pm 9.4 5.8 5.0 74 2.0 WSW 13 17 7 9 - - 0.0
17/08:30pm 10.2 6.3 5.2 71 2.3 WSW 15 19 8 10 - - 0.0
17/08:00pm 9.8 6.2 5.0 72 2.2 WSW 13 17 7 9 - - 0.0
17/07:30pm 10.1 5.8 5.1 71 2.3 WSW 17 24 9 13 - - 0.0
17/07:00pm 8.3 5.0 4.7 78 1.6 WSW 11 15 6 8 - - 0.0
17/06:30pm 9.3 6.4 4.7 73 2.1 WSW 9 13 5 7 - - 0.0
17/06:00pm 10.9 7.7 5.0 67 2.7 W 11 13 6 7 - - 0.0
17/05:30pm 11.4 8.6 5.1 65 2.9 WSW 9 15 5 8 - - 0.0
17/05:00pm 11.6 7.6 4.8 63 3.1 W 15 20 8 11 - - 0.0
17/04:30pm 12.5 7.2 5.0 60 3.5 W 22 33 12 18 - - 0.0
17/04:00pm 12.8 6.7 5.0 59 3.6 W 26 33 14 18 - - 0.0
17/03:30pm 12.8 6.4 5.2 60 3.5 W 28 37 15 20 - - 0.0
17/03:00pm 13.0 7.4 5.4 60 3.6 WSW 24 33 13 18 - - 0.0
17/02:30pm 13.4 7.8 5.3 58 3.8 WSW 24 35 13 19 - - 0.0
17/02:00pm 13.2 7.9 5.1 58 3.8 W 22 33 12 18 - - 0.0
17/01:30pm 13.0 6.5 4.9 58 3.8 W 28 41 15 22 - - 0.0
17/01:00pm 13.2 7.5 5.1 58 3.8 W 24 37 13 20 - - 0.0
17/12:30pm 13.1 7.1 5.5 60 3.6 W 26 35 14 19 - - 0.0
17/12:00pm 12.7 6.2 4.9 59 3.6 WSW 28 39 15 21 - - 0.0
17/11:30am 12.9 7.7 5.3 60 3.6 W 22 30 12 16 - - 0.0
17/11:00am 12.2 6.5 5.1 62 3.3 W 24 37 13 20 - - 0.0
17/10:30am 11.5 5.4 4.9 64 3.0 WSW 26 35 14 19 - - 0.0
17/10:00am 11.8 6.1 5.0 63 3.1 W 24 35 13 19 - - 0.0
17/09:30am 11.3 6.9 5.0 65 2.9 W 17 24 9 13 - - 0.0
17/09:00am 10.5 6.2 5.1 69 2.5 W 17 24 9 13 - - 0.0
17/08:30am 9.3 6.3 4.1 70 2.3 WNW 9 13 5 7 - - 0.0
17/08:00am 8.8 6.2 4.2 73 2.0 WNW 7 9 4 5 - - 0.0
17/07:30am 7.7 5.0 3.9 77 1.6 W 7 9 4 5 - - 0.0
17/07:00am 6.3 4.1 3.6 83 1.1 W 4 6 2 3 - - 0.0
17/06:30am 5.6 3.2 2.3 79 1.3 W 4 6 2 3 - - 0.0
17/06:00am 6.3 3.4 2.6 77 1.5 W 7 13 4 7 - - 0.0
17/05:30am 5.3 2.5 1.8 78 1.4 WSW 6 9 3 5 - - 0.0
17/05:00am 5.3 2.4 1.4 76 1.5 W 6 11 3 6 - - 0.0
17/04:30am 6.4 3.6 1.9 73 1.8 WNW 6 7 3 4 - - 0.0
17/04:00am 6.0 2.9 1.5 73 1.8 W 7 11 4 6 - - 0.0
17/03:30am 6.3 3.2 1.4 71 2.0 W 7 9 4 5 - - 0.0
17/03:00am 6.7 3.8 1.2 68 2.2 WNW 6 9 3 5 - - 0.0
17/02:30am 7.3 4.2 1.4 66 2.4 WNW 7 9 4 5 - - 0.0
17/02:00am 8.2 4.0 1.6 63 2.7 WSW 13 17 7 9 - - 0.0
17/01:30am 8.3 2.9 1.2 61 2.9 WSW 19 24 10 13 - - 0.0
17/01:00am 8.2 1.4 1.1 61 2.9 WSW 26 30 14 16 - - 0.0
17/12:30am 8.2 2.2 0.9 60 3.0 WSW 22 28 12 15 - - 0.0
17/12:00am 8.8 3.4 1.0 58 3.2 WSW 19 22 10 12 - - 0.0
 
Date/Time
EST
Temp
°C
App
Temp
°C
Dew
Point
°C
Rel
Hum
%
Delta-T
°C
Wind Press
QNH
hPa
Press
MSL
hPa
Rain since
9am
mm
Dir  Spd
km/h
Gust
km/h
Spd
kts
Gust
kts
16/11:30pm 9.2 4.5 1.1 57 3.3 WSW 15 20 8 11 - - 0.0
16/11:00pm 8.8 5.0 1.5 60 3.0 SW 11 15 6 8 - - 0.0
16/10:30pm 9.2 5.8 1.6 59 3.2 W 9 15 5 8 - - 0.0
16/10:00pm 8.3 5.5 1.9 64 2.7 WNW 6 7 3 4 - - 0.0
16/09:30pm 9.3 6.0 2.6 63 2.9 WNW 9 11 5 6 - - 0.0
16/09:00pm 9.4 6.7 2.7 63 2.9 WNW 6 9 3 5 - - 0.0
16/08:30pm 9.0 6.3 2.8 65 2.6 WNW 6 7 3 4 - - 0.0
16/08:00pm 8.6 5.9 2.8 67 2.5 WNW 6 9 3 5 - - 0.0
16/07:30pm 8.0 5.7 2.5 68 2.3 W 4 6 2 3 - - 0.0
16/07:00pm 9.2 7.5 2.1 61 3.0 CALM 0 4 0 2 - - 0.0
16/06:30pm 10.7 9.0 2.0 55 3.7 CALM 0 2 0 1 - - 0.0
16/06:00pm 13.1 9.4 2.1 47 4.8 W 11 20 6 11 - - 0.0
16/05:30pm 13.9 8.9 1.5 43 5.4 W 17 33 9 18 - - 0.0
16/05:00pm 14.2 9.0 2.5 45 5.2 W 19 28 10 15 - - 0.0
16/04:30pm 15.2 8.9 1.4 39 6.0 W 24 39 13 21 - - 0.0
16/04:00pm 16.0 9.4 2.1 39 6.2 WSW 26 37 14 20 - - 0.0
16/03:38pm 16.8 9.8 2.0 37 6.7 W 28 54 15 29 - - 0.0
16/03:30pm 16.6 10.8 2.2 38 6.5 W 22 37 12 20 - - 0.0
16/03:00pm 16.5 8.5 1.8 37 6.6 W 33 54 18 29 - - 0.0
16/02:53pm 16.8 8.4 1.7 36 6.7 W 35 54 19 29 - - 0.0
16/02:30pm 16.1 7.3 1.4 37 6.5 W 37 50 20 27 - - 0.0
16/02:12pm 16.7 8.4 2.3 38 6.5 W 35 56 19 30 - - 0.0
16/02:00pm 16.6 7.1 1.9 37 6.6 W 41 54 22 29 - - 0.0
16/01:46pm 16.8 9.2 2.8 39 6.4 W 32 52 17 28 - - 0.0
16/01:30pm 16.3 8.0 2.3 39 6.3 WSW 35 50 19 27 - - 0.0
16/01:00pm 17.0 8.6 1.4 35 6.9 W 35 52 19 28 - - 0.0
16/12:52pm 17.2 9.7 4.2 42 6.1 WSW 33 54 18 29 - - 0.0
16/12:30pm 15.8 8.0 2.6 41 6.0 W 33 50 18 27 - - 0.0
16/12:00pm 16.5 8.0 2.9 40 6.2 WSW 37 56 20 30 - - 0.0
16/11:44am 15.8 8.3 3.3 43 5.7 W 32 50 17 27 - - 0.0
16/11:30am 14.6 7.0 3.1 46 5.2 W 32 43 17 23 - - 0.0
16/11:00am 14.6 7.5 3.7 48 5.0 W 30 46 16 25 - - 0.0
16/10:30am 14.7 8.2 4.7 51 4.7 W 28 48 15 26 - - 0.0
16/10:00am 13.7 8.9 5.6 58 3.8 W 20 26 11 14 - - 0.0
16/09:30am 12.1 7.5 5.7 65 3.0 WNW 19 24 10 13 - - 0.0
16/09:00am 10.7 6.5 5.7 71 2.3 W 17 24 9 13 - - 0.0
16/08:30am 9.4 5.2 5.6 77 1.7 W 17 22 9 12 - - 0.0
16/08:00am 8.0 4.1 5.5 84 1.1 WNW 15 20 8 11 - - 0.0
16/07:30am 5.5 2.7 5.1 97 0.2 WNW 9 13 5 7 - - 0.0
16/07:00am 1.7 -0.1 1.4 98 0.1 CALM 0 0 0 0 - - 0.0
16/06:30am 1.0 -0.9 0.7 98 0.1 CALM 0 0 0 0 - - 0.0
16/06:00am 0.6 -1.4 0.2 97 0.1 CALM 0 0 0 0 - - 0.0
16/05:30am 0.5 -1.5 0.1 97 0.1 CALM 0 0 0 0 - - 0.0
16/05:00am 1.2 -0.7 0.6 96 0.2 CALM 0 0 0 0 - - 0.0
16/04:30am 1.4 -0.4 1.0 97 0.2 CALM 0 0 0 0 - - 0.0
16/04:00am 1.3 -0.5 0.9 97 0.1 CALM 0 0 0 0 - - 0.0
16/03:30am 1.2 -0.7 0.6 96 0.2 CALM 0 2 0 1 - - 0.0
16/03:00am 1.5 -1.5 0.9 96 0.2 NNW 6 7 3 4 - - 0.0
16/02:30am 2.4 0.7 1.7 95 0.3 CALM 0 0 0 0 - - 0.0
16/02:00am 3.0 1.0 2.3 95 0.3 N 2 6 1 3 - - 0.0
16/01:30am 3.4 1.9 2.8 96 0.2 CALM 0 0 0 0 - - 0.0
16/01:00am 3.4 1.8 2.2 92 0.5 CALM 0 0 0 0 - - 0.0
16/12:30am 4.8 3.3 3.1 89 0.7 CALM 0 0 0 0 - - 0.0
16/12:00am 6.3 3.7 3.3 81 1.3 NW 6 6 3 3 - - 0.0
 
Date/Time
EST
Temp
°C
App
Temp
°C
Dew
Point
°C
Rel
Hum
%
Delta-T
°C
Wind Press
QNH
hPa
Press
MSL
hPa
Rain since
9am
mm
Dir  Spd
km/h
Gust
km/h
Spd
kts
Gust
kts
15/11:30pm 7.3 4.8 3.7 78 1.5 WNW 6 7 3 4 - - 0.0
15/11:00pm 7.6 5.1 3.8 77 1.6 WNW 6 9 3 5 - - 0.0
15/10:30pm 8.4 5.4 4.0 74 1.9 WNW 9 13 5 7 - - 0.0
15/10:00pm 9.1 5.8 4.3 72 2.1 WNW 11 15 6 8 - - 0.0
15/09:30pm 9.2 5.9 4.4 72 2.1 WNW 11 15 6 8 - - 0.0
15/09:00pm 7.6 4.9 3.8 77 1.6 WNW 7 11 4 6 - - 0.0
15/08:30pm 8.0 5.3 3.8 75 1.8 W 7 7 4 4 - - 0.0
15/08:00pm 9.0 6.0 4.2 72 2.1 W 9 13 5 7 - - 0.0
15/07:30pm 8.9 6.4 3.7 70 2.3 W 6 7 3 4 - - 0.0
15/07:00pm 8.5 6.0 3.8 72 2.0 WNW 6 6 3 3 - - 0.0
15/06:30pm 9.8 7.9 4.8 71 2.3 WSW 4 9 2 5 - - 0.0

Latest Capital City Observations: Canberra | Sydney | Melbourne | Brisbane | Adelaide | Perth | Hobart | Darwin

Other formats

Comma delimited format used in spreadsheet applications
http://www.bom.gov.au/fwo/IDQ60901/IDQ60901.94562.axf

JavaScript Object Notation format (JSON) in row-major order
http://www.bom.gov.au/fwo/IDQ60901/IDQ60901.94562.json

Data quality

Most of these data are generated automatically and are frequently updated. Quality checks on data are not normally performed. It is possible for incorrect values to appear. Refer to information at About Latest Weather Observations and please check the disclaimer before using these data.